createdAt,value
2023-01-21T00:01:08.826Z,-1.24
2023-01-21T00:03:37.783Z,-1.28
2023-01-21T00:06:05.812Z,-0.97
2023-01-21T00:08:33.353Z,-0.84
2023-01-21T00:11:05.726Z,-0.96
2023-01-21T00:13:34.670Z,-0.72
2023-01-21T00:16:02.393Z,-0.71
2023-01-21T00:18:30.235Z,-0.83
2023-01-21T00:20:59.087Z,-1.24
2023-01-21T00:23:26.968Z,-1.22
2023-01-21T00:25:58.581Z,-1.63
2023-01-21T00:28:28.254Z,-1.47
2023-01-21T00:30:58.093Z,-1.45
2023-01-21T00:33:25.716Z,-1.55
2023-01-21T00:36:00.415Z,-1.39
2023-01-21T00:38:28.335Z,-1.43
2023-01-21T00:41:00.856Z,-1.52
2023-01-21T00:43:28.552Z,-1.26
2023-01-21T00:45:56.076Z,-1.64
2023-01-21T00:48:23.956Z,-1.57
2023-01-21T00:50:52.129Z,-1.61
2023-01-21T00:53:21.040Z,-1.66
2023-01-21T00:55:48.517Z,-1.82
2023-01-21T00:58:16.042Z,-1.84
2023-01-21T01:00:43.653Z,-1.83
2023-01-21T01:03:11.276Z,-1.70
2023-01-21T01:05:38.757Z,-1.76
2023-01-21T01:08:06.450Z,-1.66
2023-01-21T01:10:38.133Z,-1.69
2023-01-21T01:13:05.621Z,-1.77
2023-01-21T01:15:33.157Z,-1.75
2023-01-21T01:18:00.626Z,-1.81
2023-01-21T01:20:28.239Z,-1.85
2023-01-21T01:22:55.756Z,-1.81
2023-01-21T01:25:23.238Z,-1.67
2023-01-21T01:27:52.061Z,-1.65
2023-01-21T01:30:19.701Z,-1.77
2023-01-21T01:32:47.180Z,-1.70
2023-01-21T01:35:14.842Z,-1.92
2023-01-21T01:37:42.316Z,-1.86
2023-01-21T01:40:11.151Z,-1.81
2023-01-21T01:42:38.698Z,-1.81
2023-01-21T01:45:16.773Z,-1.82
2023-01-21T01:47:49.627Z,-1.77
2023-01-21T01:50:20.774Z,-1.79
2023-01-21T01:52:48.565Z,-1.53
2023-01-21T01:55:16.312Z,-1.95
2023-01-21T01:57:48.861Z,-1.74
2023-01-21T02:00:19.346Z,-1.75
2023-01-21T02:03:07.525Z,-1.70
2023-01-21T02:05:37.634Z,-1.89
2023-01-21T02:08:05.266Z,-1.78
2023-01-21T02:10:34.391Z,-1.76
2023-01-21T02:13:02.682Z,-1.93
2023-01-21T02:15:37.226Z,-2.04
2023-01-21T02:18:18.597Z,-2.13
2023-01-21T02:21:17.279Z,-2.04
2023-01-21T02:24:10.507Z,-2.10
2023-01-21T02:27:01.054Z,-2.06
2023-01-21T02:30:08.247Z,-2.09
2023-01-21T02:33:10.757Z,-2.22
2023-01-21T02:35:44.032Z,-2.00
2023-01-21T02:38:19.814Z,-2.15
2023-01-21T02:40:56.938Z,-2.07
2023-01-21T02:43:32.926Z,-1.98
2023-01-21T02:46:06.981Z,-1.73
2023-01-21T02:48:41.534Z,-2.08
2023-01-21T02:51:09.222Z,-1.98
2023-01-21T02:53:37.543Z,-1.71
2023-01-21T02:56:09.771Z,-2.01
2023-01-21T02:58:40.951Z,-2.06
2023-01-21T03:01:23.110Z,-2.15
2023-01-21T03:04:27.123Z,-1.99
2023-01-21T03:07:04.340Z,-1.98
2023-01-21T03:09:33.988Z,-2.03
2023-01-21T03:12:10.566Z,-2.02
2023-01-21T03:15:03.124Z,-2.04
2023-01-21T03:17:37.015Z,-1.99
2023-01-21T03:20:11.928Z,-2.04
2023-01-21T03:22:40.754Z,-2.01
2023-01-21T03:25:10.594Z,-2.12
2023-01-21T03:27:42.082Z,-2.16
2023-01-21T03:30:14.365Z,-2.15
2023-01-21T03:32:44.616Z,-2.12
2023-01-21T03:35:17.395Z,-2.30
2023-01-21T03:37:50.352Z,-2.29
2023-01-21T03:40:22.834Z,-2.25
2023-01-21T03:42:52.587Z,-2.22
2023-01-21T03:45:27.597Z,-2.30
2023-01-21T03:48:01.278Z,-2.36
2023-01-21T03:50:35.537Z,-2.28
2023-01-21T03:53:03.156Z,-2.26
2023-01-21T03:55:30.637Z,-2.23
2023-01-21T03:57:58.123Z,-2.26
2023-01-21T04:00:25.669Z,-2.34
2023-01-21T04:02:53.191Z,-2.16
2023-01-21T04:05:20.676Z,-2.22
2023-01-21T04:07:49.485Z,-2.01
2023-01-21T04:10:18.142Z,-2.19
2023-01-21T04:12:45.848Z,-1.95
2023-01-21T04:15:13.526Z,-1.96
2023-01-21T04:17:41.004Z,-1.96
2023-01-21T04:20:09.894Z,-1.96
2023-01-21T04:22:37.567Z,-2.07
2023-01-21T04:25:06.942Z,-1.98
2023-01-21T04:27:34.441Z,-2.02
2023-01-21T04:30:01.938Z,-2.01
2023-01-21T04:32:29.440Z,-2.05
2023-01-21T04:34:56.953Z,-2.04
2023-01-21T04:37:24.437Z,-1.99
2023-01-21T04:39:51.990Z,-1.83
2023-01-21T04:42:20.857Z,-1.97
2023-01-21T04:44:48.500Z,-1.96
2023-01-21T04:47:16.049Z,-2.01
2023-01-21T04:49:43.514Z,-1.93
2023-01-21T04:52:11.010Z,-1.89
2023-01-21T04:54:38.529Z,-1.82
2023-01-21T04:57:06.007Z,-1.82
2023-01-21T04:59:34.846Z,-1.94
2023-01-21T05:02:02.351Z,-1.92
2023-01-21T05:04:30.010Z,-1.92
2023-01-21T05:06:57.493Z,-1.89
2023-01-21T05:09:25.036Z,-1.83
2023-01-21T05:11:52.513Z,-1.75
2023-01-21T05:14:19.981Z,-1.89
2023-01-21T05:16:48.877Z,-1.87
2023-01-21T05:19:16.387Z,-1.81
2023-01-21T05:21:43.858Z,-1.84
2023-01-21T05:24:11.469Z,-1.83
2023-01-21T05:26:39.079Z,-1.90
2023-01-21T05:29:06.599Z,-2.02
2023-01-21T05:31:34.207Z,-2.01
2023-01-21T05:34:03.049Z,-2.02
2023-01-21T05:36:30.664Z,-1.89
2023-01-21T05:38:58.353Z,-1.81
2023-01-21T05:41:25.990Z,-1.76
2023-01-21T05:43:53.650Z,-1.83
2023-01-21T05:46:21.215Z,-1.90
2023-01-21T05:48:48.859Z,-1.90
2023-01-21T05:51:17.740Z,-2.08
2023-01-21T05:53:46.265Z,-2.11
2023-01-21T05:56:13.748Z,-1.90
2023-01-21T05:58:41.242Z,-1.95
2023-01-21T06:01:08.763Z,-2.02
2023-01-21T06:03:38.039Z,-2.08
2023-01-21T06:06:05.978Z,-2.05
2023-01-21T06:08:34.927Z,-1.95
2023-01-21T06:11:02.418Z,-1.99
2023-01-21T06:13:29.940Z,-1.97
2023-01-21T06:15:58.162Z,-1.93
2023-01-21T06:18:25.679Z,-2.04
2023-01-21T06:20:53.197Z,-1.92
2023-01-21T06:23:20.685Z,-1.95
2023-01-21T06:25:49.490Z,-1.75
2023-01-21T06:28:17.003Z,-1.81
2023-01-21T06:30:44.640Z,-1.87
2023-01-21T06:33:12.196Z,-1.90
2023-01-21T06:35:39.689Z,-1.92
2023-01-21T06:38:07.161Z,-1.96
2023-01-21T06:40:34.682Z,-1.96
2023-01-21T06:43:03.533Z,-1.97
2023-01-21T06:45:31.071Z,-2.00
2023-01-21T06:47:58.609Z,-1.96
2023-01-21T06:50:26.275Z,-1.91
2023-01-21T06:52:53.798Z,-1.93
2023-01-21T06:55:21.424Z,-1.95
2023-01-21T06:57:48.887Z,-1.89
2023-01-21T07:00:19.643Z,-1.93
2023-01-21T07:02:47.403Z,-1.85
2023-01-21T07:05:15.704Z,-1.82
2023-01-21T07:07:43.389Z,-1.88
2023-01-21T07:10:12.335Z,-1.84
2023-01-21T07:12:39.842Z,-1.82
2023-01-21T07:15:08.904Z,-1.80
2023-01-21T07:17:37.724Z,-1.82
2023-01-21T07:20:06.024Z,-1.79
2023-01-21T07:22:34.414Z,-1.68
2023-01-21T07:25:01.926Z,-1.73
2023-01-21T07:27:29.437Z,-1.64
2023-01-21T07:29:56.958Z,-1.62
2023-01-21T07:32:24.432Z,-1.56
2023-01-21T07:34:53.238Z,-1.56
2023-01-21T07:37:20.780Z,-1.69
2023-01-21T07:39:48.299Z,-1.60
2023-01-21T07:42:15.779Z,-1.51
2023-01-21T07:44:43.308Z,-1.56
2023-01-21T07:47:11.005Z,-1.45
2023-01-21T07:49:38.569Z,-1.27
2023-01-21T07:52:07.581Z,-1.40
2023-01-21T07:54:35.093Z,-1.41
2023-01-21T07:57:02.605Z,-1.30
2023-01-21T07:59:30.082Z,-1.36
2023-01-21T08:01:57.987Z,-1.34
2023-01-21T08:04:25.748Z,-1.29
2023-01-21T08:06:56.892Z,-1.26
2023-01-21T08:09:25.934Z,-1.24
2023-01-21T08:11:53.451Z,-1.21
2023-01-21T08:14:20.941Z,-1.13
2023-01-21T08:16:48.428Z,-1.00
2023-01-21T08:19:15.912Z,-1.03
2023-01-21T08:21:43.384Z,-0.89
2023-01-21T08:24:11.383Z,-1.10
2023-01-21T08:26:40.301Z,-1.14
2023-01-21T08:29:08.201Z,-1.14
2023-01-21T08:31:36.142Z,-1.02
2023-01-21T08:34:04.009Z,-1.20
2023-01-21T08:36:31.572Z,-1.15
2023-01-21T08:39:01.793Z,-1.16
2023-01-21T08:41:29.404Z,-1.08
2023-01-21T08:43:58.248Z,-0.77
2023-01-21T08:46:25.873Z,-0.94
2023-01-21T08:48:53.334Z,-0.86
2023-01-21T08:51:20.917Z,-0.88
2023-01-21T08:53:49.931Z,-1.04
2023-01-21T08:56:17.494Z,-1.06
2023-01-21T08:58:45.169Z,-1.00
2023-01-21T09:01:16.191Z,-0.64
2023-01-21T09:03:44.178Z,-0.59
2023-01-21T09:06:12.146Z,-0.48
2023-01-21T09:08:40.374Z,-0.47
2023-01-21T09:11:09.182Z,-0.31
2023-01-21T09:13:38.864Z,-0.32
2023-01-21T09:16:10.134Z,-0.02
2023-01-21T09:18:39.033Z,-0.49
2023-01-21T09:21:07.835Z,-0.56
2023-01-21T09:23:36.717Z,-0.29
2023-01-21T09:26:06.450Z,-0.34
2023-01-21T09:28:37.525Z,-0.45
2023-01-21T09:31:07.924Z,-0.57
2023-01-21T09:33:37.564Z,-0.56
2023-01-21T09:36:08.688Z,-0.46
2023-01-21T09:38:36.225Z,-0.58
2023-01-21T09:41:16.268Z,-0.45
2023-01-21T09:43:46.877Z,-0.45
2023-01-21T09:46:22.323Z,-0.34
2023-01-21T09:48:50.536Z,-0.27
2023-01-21T09:51:26.528Z,-0.04
2023-01-21T09:53:57.719Z,-0.29
2023-01-21T09:56:32.236Z,-0.35
2023-01-21T09:59:06.993Z,-0.32
2023-01-21T10:01:37.929Z,-0.36
2023-01-21T10:04:34.149Z,-0.33
2023-01-21T10:07:08.436Z,-0.45
2023-01-21T10:09:51.859Z,-0.25
2023-01-21T10:12:32.522Z,-0.53
2023-01-21T10:15:11.228Z,-0.36
2023-01-21T10:17:51.873Z,-0.38
2023-01-21T10:20:25.350Z,-0.08
2023-01-21T10:23:00.222Z,0.05
2023-01-21T10:25:31.601Z,0.33
2023-01-21T10:28:03.348Z,0.23
2023-01-21T10:30:37.436Z,0.36
2023-01-21T10:33:07.876Z,-0.20
2023-01-21T10:35:51.644Z,-0.16
2023-01-21T10:38:28.667Z,-0.28
2023-01-21T10:41:02.981Z,-0.27
2023-01-21T10:43:37.402Z,0.06
2023-01-21T10:46:16.266Z,0.15
2023-01-21T10:48:55.487Z,-0.02
2023-01-21T10:51:26.899Z,0.54
2023-01-21T10:54:02.828Z,0.38
2023-01-21T10:56:40.931Z,0.45
2023-01-21T10:59:12.152Z,0.40
2023-01-21T11:01:43.332Z,0.34
2023-01-21T11:04:15.390Z,-0.16
2023-01-21T11:06:44.920Z,-0.14
2023-01-21T11:09:15.887Z,-0.10
2023-01-21T11:11:43.376Z,-0.16
2023-01-21T11:14:11.076Z,-0.37
2023-01-21T11:16:46.519Z,-0.36
2023-01-21T11:19:16.027Z,-0.32
2023-01-21T11:21:59.052Z,-0.25
2023-01-21T11:24:32.570Z,-0.15
2023-01-21T11:27:01.515Z,-0.20
2023-01-21T11:29:40.844Z,-0.05
2023-01-21T11:32:19.014Z,-0.06
2023-01-21T11:34:48.336Z,-0.08
2023-01-21T11:37:23.670Z,-0.16
2023-01-21T11:39:56.452Z,-0.14
2023-01-21T11:42:24.834Z,0.04
2023-01-21T11:44:54.245Z,-0.05
2023-01-21T11:47:37.948Z,0.13
2023-01-21T11:50:15.313Z,0.10
2023-01-21T11:52:43.017Z,0.40
2023-01-21T11:55:23.159Z,0.45
2023-01-21T11:57:53.899Z,0.18
2023-01-21T12:00:24.503Z,0.18
2023-01-21T12:02:54.765Z,0.19
2023-01-21T12:05:32.307Z,0.52
2023-01-21T12:08:00.845Z,0.65
2023-01-21T12:10:33.194Z,0.46
2023-01-21T12:13:23.533Z,0.20
2023-01-21T12:16:11.599Z,0.49
2023-01-21T12:18:55.777Z,0.52
2023-01-21T12:21:32.448Z,0.37
2023-01-21T12:24:10.944Z,0.36
2023-01-21T12:26:45.407Z,0.27
2023-01-21T12:29:29.101Z,0.26
2023-01-21T12:32:02.081Z,0.46
2023-01-21T12:34:34.174Z,0.51
2023-01-21T12:37:05.769Z,0.70
2023-01-21T12:39:37.311Z,0.55
2023-01-21T12:42:15.163Z,0.71
2023-01-21T12:44:47.332Z,0.62
2023-01-21T12:47:22.865Z,0.38
2023-01-21T12:49:59.759Z,0.39
2023-01-21T12:52:33.725Z,0.64
2023-01-21T12:55:08.817Z,0.66
2023-01-21T12:57:42.757Z,0.62
2023-01-21T13:00:19.503Z,0.45
2023-01-21T13:02:56.389Z,0.35
2023-01-21T13:05:30.537Z,0.60
2023-01-21T13:08:06.303Z,0.43
2023-01-21T13:10:37.933Z,0.52
2023-01-21T13:13:16.026Z,0.44
2023-01-21T13:15:46.330Z,0.35
2023-01-21T13:18:17.500Z,0.34
2023-01-21T13:20:53.390Z,0.35
2023-01-21T13:23:30.589Z,0.29
2023-01-21T13:26:04.243Z,0.41
2023-01-21T13:28:40.237Z,0.38
2023-01-21T13:31:16.159Z,0.14
2023-01-21T13:33:54.946Z,0.15
2023-01-21T13:36:37.375Z,0.24
2023-01-21T13:39:12.111Z,0.26
2023-01-21T13:41:54.828Z,0.00
2023-01-21T13:44:46.570Z,0.07
2023-01-21T13:47:26.868Z,0.30
2023-01-21T13:50:23.216Z,0.26
2023-01-21T13:53:21.161Z,0.37
2023-01-21T13:56:00.895Z,0.19
2023-01-21T13:58:36.254Z,0.08
2023-01-21T14:01:12.208Z,0.17
2023-01-21T14:03:45.042Z,0.28
2023-01-21T14:06:24.457Z,0.39
2023-01-21T14:08:57.695Z,0.09
2023-01-21T14:11:30.375Z,0.32
2023-01-21T14:14:34.242Z,0.27
2023-01-21T14:17:15.921Z,0.27
2023-01-21T14:20:01.368Z,0.17
2023-01-21T14:22:45.432Z,0.28
2023-01-21T14:25:30.850Z,0.40
2023-01-21T14:28:07.251Z,0.36
2023-01-21T14:30:43.006Z,0.35
2023-01-21T14:33:16.238Z,0.29
2023-01-21T14:35:48.922Z,0.38
2023-01-21T14:38:27.318Z,0.41
2023-01-21T14:41:05.725Z,0.20
2023-01-21T14:43:52.558Z,-0.15
2023-01-21T14:46:28.883Z,-0.08
2023-01-21T14:49:07.683Z,-0.26
2023-01-21T14:51:43.931Z,-0.02
2023-01-21T14:54:14.567Z,-0.10
2023-01-21T14:56:54.241Z,-0.22
2023-01-21T14:59:33.482Z,-0.18
2023-01-21T15:02:02.339Z,-0.26
2023-01-21T15:04:37.265Z,-0.18
2023-01-21T15:07:11.026Z,-0.40
2023-01-21T15:09:44.906Z,-0.34
2023-01-21T15:12:17.135Z,-0.32
2023-01-21T15:14:45.604Z,-0.35
2023-01-21T15:17:47.132Z,-0.42
2023-01-21T15:20:57.852Z,-0.29
2023-01-21T15:23:38.108Z,-0.35
2023-01-21T15:26:36.387Z,-0.51
2023-01-21T15:29:33.636Z,-0.41
2023-01-21T15:32:20.059Z,-0.38
2023-01-21T15:34:51.110Z,-0.53
2023-01-21T15:37:21.900Z,-0.52
2023-01-21T15:39:52.162Z,-0.63
2023-01-21T15:42:27.756Z,-0.62
2023-01-21T15:45:06.321Z,-0.54
2023-01-21T15:47:58.484Z,-0.68
2023-01-21T15:50:31.367Z,-0.62
2023-01-21T15:53:15.328Z,-0.69
2023-01-21T15:56:03.141Z,-0.79
2023-01-21T15:58:41.000Z,-0.72
2023-01-21T16:01:18.968Z,-0.65
2023-01-21T16:04:03.117Z,-0.77
2023-01-21T16:06:39.443Z,-0.77
2023-01-21T16:09:09.190Z,-0.72
2023-01-21T16:11:53.694Z,-0.76
2023-01-21T16:14:40.519Z,-0.81
2023-01-21T16:17:17.719Z,-0.87
2023-01-21T16:19:49.184Z,-0.85
2023-01-21T16:22:21.830Z,-0.82
2023-01-21T16:24:53.350Z,-0.94
2023-01-21T16:27:24.991Z,-0.93
2023-01-21T16:29:56.482Z,-0.88
2023-01-21T16:32:24.345Z,-0.87
2023-01-21T16:34:51.903Z,-0.95
2023-01-21T16:37:21.497Z,-0.97
2023-01-21T16:39:49.433Z,-1.12
2023-01-21T16:42:27.332Z,-1.03
2023-01-21T16:44:54.981Z,-1.09
2023-01-21T16:47:25.682Z,-1.14
2023-01-21T16:49:53.542Z,-1.12
2023-01-21T16:52:23.789Z,-1.16
2023-01-21T16:54:53.246Z,-1.18
2023-01-21T16:57:31.651Z,-1.20
2023-01-21T17:00:02.263Z,-1.11
2023-01-21T17:02:31.753Z,-1.08
2023-01-21T17:05:00.809Z,-1.17
2023-01-21T17:07:31.146Z,-0.93
2023-01-21T17:10:02.471Z,-1.01
2023-01-21T17:12:34.610Z,-0.95
2023-01-21T17:15:14.359Z,-1.04
2023-01-21T17:17:41.982Z,-1.06
2023-01-21T17:20:33.925Z,-1.10
2023-01-21T17:23:04.432Z,-1.03
2023-01-21T17:25:32.200Z,-1.16
2023-01-21T17:28:01.038Z,-1.10
2023-01-21T17:30:31.781Z,-1.10
2023-01-21T17:33:00.638Z,-1.24
2023-01-21T17:35:29.600Z,-1.17
2023-01-21T17:37:59.315Z,-1.14
2023-01-21T17:40:33.317Z,-1.06
2023-01-21T17:43:15.178Z,-1.24
2023-01-21T17:45:46.665Z,-1.24
2023-01-21T17:48:23.866Z,-1.24
2023-01-21T17:50:52.454Z,-1.27
2023-01-21T17:53:23.560Z,-1.21
2023-01-21T17:56:02.030Z,-1.15
2023-01-21T17:58:46.596Z,-1.05
2023-01-21T18:01:15.319Z,-1.12
2023-01-21T18:03:42.869Z,-1.14
2023-01-21T18:06:19.594Z,-1.26
2023-01-21T18:08:47.223Z,-1.20
2023-01-21T18:11:16.726Z,-1.27
2023-01-21T18:13:45.605Z,-1.22
2023-01-21T18:16:13.199Z,-1.27
2023-01-21T18:18:41.055Z,-1.22
2023-01-21T18:21:17.459Z,-1.18
2023-01-21T18:23:44.993Z,-1.20
2023-01-21T18:26:18.301Z,-1.21
2023-01-21T18:28:47.135Z,-1.14
2023-01-21T18:31:14.720Z,-1.10
2023-01-21T18:33:42.238Z,-1.14
2023-01-21T18:36:11.727Z,-1.23
2023-01-21T18:38:39.234Z,-1.23
2023-01-21T18:41:08.747Z,-1.13
2023-01-21T18:43:36.329Z,-1.12
2023-01-21T18:46:11.126Z,-1.19
2023-01-21T18:48:38.647Z,-1.09
2023-01-21T18:51:06.530Z,-1.19
2023-01-21T18:53:34.003Z,-1.09
2023-01-21T18:56:01.604Z,-1.07
2023-01-21T18:58:29.200Z,-1.04
2023-01-21T19:00:56.722Z,-0.96
2023-01-21T19:03:25.619Z,-0.83
2023-01-21T19:05:53.091Z,-1.14
2023-01-21T19:08:24.628Z,-1.06
2023-01-21T19:10:52.282Z,-0.95
2023-01-21T19:13:19.807Z,-0.96
2023-01-21T19:15:48.283Z,-0.96
2023-01-21T19:18:17.373Z,-0.88
2023-01-21T19:20:46.225Z,-0.88
2023-01-21T19:23:16.176Z,-1.04
2023-01-21T19:25:46.354Z,-1.08
2023-01-21T19:28:13.869Z,-0.84
2023-01-21T19:30:45.016Z,-0.83
2023-01-21T19:33:13.220Z,-0.77
2023-01-21T19:35:44.551Z,-0.70
2023-01-21T19:38:17.135Z,-0.81
2023-01-21T19:40:45.623Z,-0.82
2023-01-21T19:43:14.381Z,-0.77
2023-01-21T19:45:42.710Z,-0.73
2023-01-21T19:48:13.086Z,-0.86
2023-01-21T19:50:40.965Z,-0.88
2023-01-21T19:53:10.381Z,-0.79
2023-01-21T19:55:40.138Z,-0.76
2023-01-21T19:58:17.722Z,-0.76
2023-01-21T20:00:45.261Z,-0.63
2023-01-21T20:03:13.566Z,-0.71
2023-01-21T20:05:41.356Z,-0.59
2023-01-21T20:08:12.347Z,-0.61
2023-01-21T20:10:41.425Z,-0.70
2023-01-21T20:13:12.804Z,-0.61
2023-01-21T20:15:42.247Z,-0.69
2023-01-21T20:18:18.289Z,-0.44
2023-01-21T20:20:45.969Z,-0.46
2023-01-21T20:23:15.023Z,-0.33
2023-01-21T20:25:45.999Z,-0.44
2023-01-21T20:28:19.251Z,-0.73
2023-01-21T20:30:47.392Z,-0.73
2023-01-21T20:33:17.748Z,-0.62
2023-01-21T20:35:47.038Z,-0.63
2023-01-21T20:38:17.236Z,-0.69
2023-01-21T20:40:46.116Z,-0.59
2023-01-21T20:43:13.702Z,-0.39
2023-01-21T20:45:43.613Z,-0.18
2023-01-21T20:48:18.747Z,-0.30
2023-01-21T20:50:46.902Z,-0.15
2023-01-21T20:53:15.110Z,-0.08
2023-01-21T20:55:44.442Z,0.07
2023-01-21T20:58:14.482Z,-0.18
2023-01-21T21:00:43.780Z,-0.50
2023-01-21T21:03:11.828Z,-0.37
2023-01-21T21:05:39.410Z,-0.17
2023-01-21T21:08:06.887Z,0.05
2023-01-21T21:10:37.062Z,-0.29
2023-01-21T21:13:05.325Z,-0.22
2023-01-21T21:15:36.041Z,-0.28
2023-01-21T21:18:04.139Z,-0.17
2023-01-21T21:20:34.489Z,-0.19
2023-01-21T21:23:02.312Z,-0.35
2023-01-21T21:25:31.936Z,-0.14
2023-01-21T21:27:59.465Z,-0.34
2023-01-21T21:30:29.190Z,-0.39
2023-01-21T21:32:59.451Z,-0.59
2023-01-21T21:35:28.747Z,-0.32
2023-01-21T21:37:57.822Z,-0.57
2023-01-21T21:40:29.191Z,-0.46
2023-01-21T21:43:14.525Z,-0.39
2023-01-21T21:45:57.737Z,-0.01
2023-01-21T21:48:43.357Z,-0.04
2023-01-21T21:51:12.957Z,-0.30
2023-01-21T21:53:41.642Z,-0.20
2023-01-21T21:56:11.364Z,-0.31
2023-01-21T21:58:38.859Z,-0.31
2023-01-21T22:01:11.515Z,-0.37
2023-01-21T22:03:41.055Z,-0.48
2023-01-21T22:06:09.529Z,-0.28
2023-01-21T22:08:38.443Z,-0.35
2023-01-21T22:11:07.750Z,-0.52
2023-01-21T22:13:40.045Z,-0.37
2023-01-21T22:16:09.245Z,-0.26
2023-01-21T22:18:36.752Z,0.00
2023-01-21T22:21:08.185Z,0.20
2023-01-21T22:23:37.873Z,0.47
2023-01-21T22:26:07.501Z,0.37
2023-01-21T22:28:35.668Z,-0.17
2023-01-21T22:31:05.052Z,-0.15
2023-01-21T22:33:32.879Z,0.10
2023-01-21T22:36:04.823Z,0.31
2023-01-21T22:38:34.337Z,0.21
2023-01-21T22:41:02.267Z,0.07
2023-01-21T22:43:30.297Z,-0.11
2023-01-21T22:45:59.114Z,0.39
2023-01-21T22:48:27.762Z,0.74
2023-01-21T22:50:57.049Z,0.58
2023-01-21T22:53:26.714Z,0.10
2023-01-21T22:55:55.639Z,-0.13
2023-01-21T22:58:23.332Z,-0.45
2023-01-21T23:00:51.912Z,-0.35
2023-01-21T23:03:20.332Z,-0.23
2023-01-21T23:05:48.347Z,-0.31
2023-01-21T23:08:16.882Z,-0.44
2023-01-21T23:10:47.198Z,-0.59
2023-01-21T23:13:15.879Z,-0.66
2023-01-21T23:15:44.391Z,-0.74
2023-01-21T23:18:14.128Z,-0.77
2023-01-21T23:20:43.084Z,-0.52
2023-01-21T23:23:12.220Z,-0.46
2023-01-21T23:25:41.104Z,-0.62
2023-01-21T23:28:09.999Z,-0.64
2023-01-21T23:30:37.838Z,-0.44
2023-01-21T23:33:05.526Z,-0.74
2023-01-21T23:35:34.554Z,-0.76
2023-01-21T23:38:02.917Z,-0.93
2023-01-21T23:40:30.405Z,-0.94
2023-01-21T23:42:57.912Z,-0.88
2023-01-21T23:45:26.970Z,-1.06
2023-01-21T23:47:55.107Z,-1.34
2023-01-21T23:50:22.872Z,-1.38
2023-01-21T23:52:50.347Z,-1.34
2023-01-21T23:55:18.059Z,-1.19
2023-01-21T23:57:45.543Z,-1.35
